www.cux-wetter.de
Wetterdaten: Woche 13.07.09 - 19.07.09 (KW29)
Datum Zeit Temp. A. Feuchte A. Luftdruck Regen Wind Richtung Sonnenschein Solar Taupunkt Windchill Windben
13.07.2009 00:00 15,5 C 93 % 1006,5 hPa 0,0 l/m 10,6 km/h (2 Bft) W 0,00 h 0 W/m 14,4 C 13,4 C 10,6 km/h (2 Bft)
13.07.2009 01:00 15,1 C 94 % 1006,5 hPa 0,0 l/m 9,2 km/h (2 Bft) W-SW 0,00 h 0 W/m 14,1 C 13,7 C 9,2 km/h (2 Bft)
13.07.2009 02:00 14,8 C 94 % 1006,7 hPa 0,0 l/m 7,3 km/h (2 Bft) W-SW 0,00 h 0 W/m 13,8 C 14,1 C 7,3 km/h (2 Bft)
13.07.2009 03:00 14,8 C 93 % 1006,5 hPa 0,0 l/m 5,7 km/h (2 Bft) W-SW 0,00 h 0 W/m 13,6 C 14,6 C 5,7 km/h (2 Bft)
13.07.2009 04:00 14,5 C 94 % 1007,2 hPa 0,3 l/m 7,8 km/h (2 Bft) SW 0,00 h 0 W/m 13,5 C 13,6 C 7,8 km/h (2 Bft)
13.07.2009 05:00 14,8 C 94 % 1007,5 hPa 0,0 l/m 8,1 km/h (2 Bft) W-SW 0,00 h 0 W/m 13,8 C 13,8 C 8,1 km/h (2 Bft)
13.07.2009 06:00 15,4 C 94 % 1007,5 hPa 0,0 l/m 13,3 km/h (3 Bft) W-SW 0,00 h 0 W/m 14,4 C 12,2 C 13,3 km/h (3 Bft)
13.07.2009 07:00 16,1 C 92 % 1007,5 hPa 0,0 l/m 15,8 km/h (3 Bft) W-SW 0,00 h 0 W/m 14,8 C 12,3 C 15,8 km/h (3 Bft)
13.07.2009 08:00 16,7 C 87 % 1008,4 hPa 0,0 l/m 19,6 km/h (3 Bft) W-SW 0,00 h 0 W/m 14,5 C 12,1 C 19,6 km/h (3 Bft)
13.07.2009 09:00 16,8 C 85 % 1008,5 hPa 0,0 l/m 18,2 km/h (3 Bft) W-SW 0,00 h 0 W/m 14,3 C 12,6 C 18,2 km/h (3 Bft)
13.07.2009 10:00 17,0 C 87 % 1008,5 hPa 0,0 l/m 13,0 km/h (3 Bft) W-SW 0,00 h 0 W/m 14,8 C 14,3 C 13,0 km/h (3 Bft)
13.07.2009 11:00 20,5 C 76 % 1008,5 hPa 0,0 l/m 17,3 km/h (3 Bft) W-SW 0,00 h 0 W/m 16,0 C 17,4 C 17,3 km/h (3 Bft)
13.07.2009 12:00 20,8 C 72 % 1009,3 hPa 0,0 l/m 20,9 km/h (4 Bft) W-SW 0,00 h 0 W/m 15,5 C 17,1 C 20,9 km/h (4 Bft)
13.07.2009 13:00 21,6 C 69 % 1009,5 hPa 0,0 l/m 19,9 km/h (4 Bft) W-SW 0,00 h 0 W/m 15,7 C 18,3 C 19,9 km/h (4 Bft)
13.07.2009 14:00 22,7 C 70 % 1009,5 hPa 0,0 l/m 13,1 km/h (3 Bft) N-NW 0,00 h 0 W/m 16,8 C 20,9 C 13,1 km/h (3 Bft)
13.07.2009 15:00 22,1 C 71 % 1009,5 hPa 0,0 l/m 13,6 km/h (3 Bft) N-NO 0,00 h 0 W/m 16,4 C 20,0 C 13,6 km/h (3 Bft)
13.07.2009 16:00 21,4 C 72 % 1009,5 hPa 0,0 l/m 12,0 km/h (2 Bft) N 0,00 h 0 W/m 16,1 C 19,7 C 12,0 km/h (2 Bft)
13.07.2009 17:00 20,2 C 74 % 1009,5 hPa 0,0 l/m 9,1 km/h (2 Bft) N 0,00 h 0 W/m 15,5 C 19,2 C 9,1 km/h (2 Bft)
13.07.2009 18:00 19,7 C 76 % 1009,5 hPa 0,0 l/m 5,8 km/h (2 Bft) N 0,00 h 0 W/m 15,4 C 19,3 C 5,8 km/h (2 Bft)
13.07.2009 19:00 18,4 C 81 % 1009,5 hPa 0,3 l/m 3,1 km/h (1 Bft) W 0,00 h 0 W/m 15,1 C 18,4 C 3,1 km/h (1 Bft)
13.07.2009 20:00 18,0 C 82 % 1009,5 hPa 0,0 l/m 0,0 km/h (0 Bft) N 0,00 h 0 W/m 14,9 C 18,0 C 0,0 km/h (0 Bft)
13.07.2009 21:00 16,7 C 82 % 1009,7 hPa 0,0 l/m 0,0 km/h (0 Bft) N 0,00 h 0 W/m 13,7 C 16,7 C 0,0 km/h (0 Bft)
13.07.2009 22:00 17,0 C 82 % 1010,5 hPa 0,0 l/m 0,0 km/h (0 Bft) N 0,00 h 0 W/m 13,9 C 17,0 C 0,0 km/h (0 Bft)
13.07.2009 23:00 16,2 C 83 % 1010,4 hPa 0,0 l/m 0,0 km/h (0 Bft) N 0,00 h 0 W/m 13,3 C 16,2 C 0,0 km/h (0 Bft)
14.07.2009 00:00 16,2 C 83 % 1009,6 hPa 0,0 l/m 0,0 km/h (0 Bft) N 0,00 h 0 W/m 13,4 C 16,2 C 0,0 km/h (0 Bft)
14.07.2009 01:00 15,6 C 85 % 1009,5 hPa 0,0 l/m 0,0 km/h (0 Bft) N 0,00 h 0 W/m 13,1 C 15,6 C 0,0 km/h (0 Bft)
14.07.2009 02:00 15,6 C 85 % 1009,2 hPa 0,0 l/m 0,0 km/h (0 Bft) N 0,00 h 0 W/m 13,0 C 15,6 C 0,0 km/h (0 Bft)
14.07.2009 03:00 15,1 C 86 % 1008,6 hPa 0,0 l/m 2,4 km/h (1 Bft) SO 0,00 h 0 W/m 12,8 C 15,1 C 2,4 km/h (1 Bft)
14.07.2009 04:00 15,3 C 87 % 1008,5 hPa 0,0 l/m 4,6 km/h (1 Bft) S-SO 0,00 h 0 W/m 13,1 C 15,1 C 4,6 km/h (1 Bft)
14.07.2009 05:00 15,1 C 86 % 1008,5 hPa 0,0 l/m 2,2 km/h (1 Bft) S-SO 0,00 h 0 W/m 12,8 C 15,1 C 2,2 km/h (1 Bft)
14.07.2009 06:00 15,4 C 86 % 1008,5 hPa 0,0 l/m 0,8 km/h (0 Bft) S-SO 0,00 h 0 W/m 13,1 C 15,4 C 0,8 km/h (0 Bft)
14.07.2009 07:00 16,4 C 86 % 1008,5 hPa 0,0 l/m 0,8 km/h (0 Bft) S-SO 0,00 h 0 W/m 14,1 C 16,4 C 0,8 km/h (0 Bft)
14.07.2009 08:00 18,6 C 85 % 1008,5 hPa 0,0 l/m 3,6 km/h (1 Bft) S-SO 0,00 h 0 W/m 16,1 C 18,3 C 3,6 km/h (1 Bft)
14.07.2009 09:00 19,7 C 78 % 1008,5 hPa 0,0 l/m 11,5 km/h (2 Bft) S-SO 0,00 h 0 W/m 15,7 C 17,9 C 11,5 km/h (2 Bft)
14.07.2009 10:00 24,0 C 63 % 1008,5 hPa 0,0 l/m 10,4 km/h (2 Bft) S-SO 0,00 h 0 W/m 16,4 C 23,1 C 10,4 km/h (2 Bft)
14.07.2009 11:00 24,7 C 59 % 1008,5 hPa 0,0 l/m 11,3 km/h (2 Bft) S 0,00 h 0 W/m 16,0 C 23,6 C 11,3 km/h (2 Bft)
14.07.2009 12:00 25,8 C 49 % 1009,2 hPa 0,0 l/m 6,8 km/h (2 Bft) SW 0,00 h 0 W/m 14,1 C 25,5 C 6,8 km/h (2 Bft)
14.07.2009 13:00 24,8 C 54 % 1009,5 hPa 0,0 l/m 6,3 km/h (2 Bft) N 0,00 h 0 W/m 14,9 C 24,5 C 6,3 km/h (2 Bft)
14.07.2009 14:00 26,5 C 51 % 1009,5 hPa 0,0 l/m 8,1 km/h (2 Bft) NO 0,00 h 0 W/m 15,6 C 26,1 C 8,1 km/h (2 Bft)
14.07.2009 15:00 26,4 C 49 % 1009,5 hPa 0,0 l/m 8,5 km/h (2 Bft) N-NO 0,00 h 0 W/m 14,6 C 25,9 C 8,5 km/h (2 Bft)
14.07.2009 16:00 25,3 C 50 % 1009,5 hPa 0,0 l/m 8,5 km/h (2 Bft) N 0,00 h 0 W/m 14,0 C 24,7 C 8,5 km/h (2 Bft)
14.07.2009 17:00 22,7 C 62 % 1009,5 hPa 0,0 l/m 11,4 km/h (2 Bft) N-NW 0,00 h 0 W/m 15,1 C 21,1 C 11,4 km/h (2 Bft)
14.07.2009 18:00 22,8 C 64 % 1009,5 hPa 0,0 l/m 8,8 km/h (2 Bft) N 0,00 h 0 W/m 15,7 C 21,8 C 8,8 km/h (2 Bft)
14.07.2009 19:00 22,4 C 66 % 1010,3 hPa 0,0 l/m 3,2 km/h (1 Bft) O-NO 0,00 h 0 W/m 15,8 C 22,4 C 3,2 km/h (1 Bft)
14.07.2009 20:00 21,8 C 68 % 1010,5 hPa 0,0 l/m 0,5 km/h (0 Bft) O-NO 0,00 h 0 W/m 15,5 C 21,8 C 0,5 km/h (0 Bft)
14.07.2009 21:00 19,8 C 72 % 1010,5 hPa 0,0 l/m 1,1 km/h (0 Bft) N-NO 0,00 h 0 W/m 14,6 C 19,8 C 1,1 km/h (0 Bft)
14.07.2009 22:00 18,5 C 78 % 1010,8 hPa 0,0 l/m 2,3 km/h (1 Bft) N-NO 0,00 h 0 W/m 14,5 C 18,5 C 2,3 km/h (1 Bft)
14.07.2009 23:00 17,8 C 81 % 1011,0 hPa 0,0 l/m 0,0 km/h (0 Bft) N 0,00 h 0 W/m 14,4 C 17,8 C 0,0 km/h (0 Bft)
15.07.2009 00:00 17,1 C 83 % 1010,5 hPa 0,0 l/m 0,0 km/h (0 Bft) N 0,00 h 0 W/m 14,1 C 17,1 C 0,0 km/h (0 Bft)
15.07.2009 01:00 16,9 C 84 % 1010,5 hPa 0,0 l/m 0,0 km/h (0 Bft) N 0,00 h 0 W/m 14,1 C 16,9 C 0,0 km/h (0 Bft)
15.07.2009 02:00 16,7 C 85 % 1010,7 hPa 0,0 l/m 1,3 km/h (1 Bft) O-SO 0,00 h 0 W/m 14,2 C 16,7 C 1,3 km/h (1 Bft)
15.07.2009 03:00 17,2 C 86 % 1011,5 hPa 0,0 l/m 0,4 km/h (0 Bft) N 0,00 h 0 W/m 14,8 C 17,2 C 0,4 km/h (0 Bft)
15.07.2009 04:00 16,8 C 86 % 1011,5 hPa 0,0 l/m 0,3 km/h (0 Bft) O-SO 0,00 h 0 W/m 14,4 C 16,8 C 0,3 km/h (0 Bft)
15.07.2009 05:00 16,2 C 86 % 1011,5 hPa 0,0 l/m 2,0 km/h (1 Bft) SO 0,00 h 0 W/m 13,9 C 16,2 C 2,0 km/h (1 Bft)
15.07.2009 06:00 16,6 C 87 % 1011,5 hPa 0,0 l/m 0,9 km/h (0 Bft) N-NW 0,00 h 0 W/m 14,4 C 16,6 C 0,9 km/h (0 Bft)
15.07.2009 07:00 17,5 C 87 % 1011,5 hPa 0,0 l/m 5,5 km/h (2 Bft) S 0,00 h 0 W/m 15,2 C 17,3 C 5,5 km/h (2 Bft)
15.07.2009 08:00 19,2 C 85 % 1011,5 hPa 0,0 l/m 7,3 km/h (2 Bft) S-SW 0,00 h 0 W/m 16,7 C 18,7 C 7,3 km/h (2 Bft)
15.07.2009 09:00 21,0 C 79 % 1011,5 hPa 0,0 l/m 11,3 km/h (2 Bft) S-SW 0,00 h 0 W/m 17,3 C 19,5 C 11,3 km/h (2 Bft)
15.07.2009 10:00 25,3 C 62 % 1012,1 hPa 0,0 l/m 14,0 km/h (3 Bft) W 0,00 h 0 W/m 17,3 C 23,9 C 14,0 km/h (3 Bft)
15.07.2009 11:00 25,6 C 58 % 1012,3 hPa 0,0 l/m 17,0 km/h (3 Bft) W-SW 0,00 h 0 W/m 16,8 C 23,8 C 17,0 km/h (3 Bft)
15.07.2009 12:00 25,8 C 57 % 1012,5 hPa 0,0 l/m 24,2 km/h (4 Bft) W-SW 0,00 h 0 W/m 16,5 C 23,3 C 24,2 km/h (4 Bft)
15.07.2009 13:00 26,7 C 55 % 1012,5 hPa 0,0 l/m 24,7 km/h (4 Bft) W 0,00 h 0 W/m 16,9 C 24,5 C 24,7 km/h (4 Bft)
15.07.2009 14:00 27,3 C 54 % 1012,5 hPa 0,0 l/m 22,7 km/h (4 Bft) W 0,00 h 0 W/m 17,0 C 25,4 C 22,7 km/h (4 Bft)
15.07.2009 15:00 26,7 C 55 % 1013,2 hPa 0,0 l/m 15,5 km/h (3 Bft) W 0,00 h 0 W/m 16,8 C 25,3 C 15,5 km/h (3 Bft)
15.07.2009 16:00 25,5 C 59 % 1013,5 hPa 0,0 l/m 14,6 km/h (3 Bft) N-NW 0,00 h 0 W/m 16,8 C 24,0 C 14,6 km/h (3 Bft)
15.07.2009 17:00 24,4 C 60 % 1014,0 hPa 0,0 l/m 14,5 km/h (3 Bft) N-NW 0,00 h 0 W/m 16,1 C 22,7 C 14,5 km/h (3 Bft)
15.07.2009 18:00 22,9 C 64 % 1014,5 hPa 0,0 l/m 13,0 km/h (3 Bft) N 0,00 h 0 W/m 15,8 C 21,1 C 13,0 km/h (3 Bft)
15.07.2009 19:00 21,5 C 69 % 1014,6 hPa 0,0 l/m 13,1 km/h (3 Bft) N 0,00 h 0 W/m 15,6 C 19,5 C 13,1 km/h (3 Bft)
15.07.2009 20:00 20,6 C 71 % 1015,5 hPa 0,0 l/m 5,3 km/h (1 Bft) N 0,00 h 0 W/m 15,2 C 20,2 C 5,3 km/h (1 Bft)
15.07.2009 21:00 18,9 C 73 % 1015,5 hPa 0,0 l/m 0,1 km/h (0 Bft) N 0,00 h 0 W/m 14,0 C 18,9 C 0,1 km/h (0 Bft)
15.07.2009 22:00 18,6 C 77 % 1016,4 hPa 0,0 l/m 0,0 km/h (0 Bft) N 0,00 h 0 W/m 14,5 C 18,6 C 0,0 km/h (0 Bft)
15.07.2009 23:00 18,0 C 78 % 1016,5 hPa 0,0 l/m 0,3 km/h (0 Bft) O-SO 0,00 h 0 W/m 14,2 C 18,0 C 0,3 km/h (0 Bft)
16.07.2009 00:00 17,8 C 80 % 1016,5 hPa 0,0 l/m 2,7 km/h (1 Bft) S 0,00 h 0 W/m 14,3 C 17,8 C 2,7 km/h (1 Bft)
16.07.2009 01:00 17,4 C 82 % 1017,2 hPa 0,0 l/m 5,8 km/h (2 Bft) S 0,00 h 0 W/m 14,2 C 17,1 C 5,8 km/h (2 Bft)
16.07.2009 02:00 16,9 C 82 % 1017,5 hPa 0,0 l/m 3,1 km/h (1 Bft) S-SW 0,00 h 0 W/m 13,8 C 16,8 C 3,1 km/h (1 Bft)
16.07.2009 03:00 16,4 C 82 % 1017,5 hPa 0,0 l/m 6,1 km/h (2 Bft) SW 0,00 h 0 W/m 13,3 C 16,1 C 6,1 km/h (2 Bft)
16.07.2009 04:00 16,3 C 83 % 1017,5 hPa 0,0 l/m 7,6 km/h (2 Bft) SW 0,00 h 0 W/m 13,4 C 15,5 C 7,6 km/h (2 Bft)
16.07.2009 05:00 15,9 C 84 % 1017,6 hPa 0,0 l/m 14,7 km/h (3 Bft) W-SW 0,00 h 0 W/m 13,2 C 12,5 C 14,7 km/h (3 Bft)
16.07.2009 06:00 16,6 C 82 % 1018,5 hPa 0,0 l/m 17,2 km/h (3 Bft) W-SW 0,00 h 0 W/m 13,5 C 12,6 C 17,2 km/h (3 Bft)
16.07.2009 07:00 17,4 C 79 % 1018,5 hPa 0,0 l/m 21,6 km/h (4 Bft) W 0,00 h 0 W/m 13,8 C 12,6 C 21,6 km/h (4 Bft)
16.07.2009 08:00 18,3 C 77 % 1018,5 hPa 0,0 l/m 23,5 km/h (4 Bft) W 0,00 h 0 W/m 14,3 C 13,4 C 23,5 km/h (4 Bft)
16.07.2009 09:00 18,8 C 77 % 1018,5 hPa 0,0 l/m 23,2 km/h (4 Bft) W 0,00 h 0 W/m 14,7 C 14,1 C 23,2 km/h (4 Bft)
16.07.2009 10:00 21,7 C 67 % 1018,9 hPa 0,0 l/m 20,4 km/h (4 Bft) W 0,00 h 0 W/m 15,2 C 18,4 C 20,4 km/h (4 Bft)
16.07.2009 11:00 22,2 C 66 % 1019,5 hPa 0,0 l/m 19,6 km/h (3 Bft) W 0,00 h 0 W/m 15,6 C 19,1 C 19,6 km/h (3 Bft)
16.07.2009 12:00 23,1 C 64 % 1019,5 hPa 0,0 l/m 19,9 km/h (4 Bft) W 0,00 h 0 W/m 15,9 C 20,2 C 19,9 km/h (4 Bft)
16.07.2009 13:00 23,8 C 61 % 1019,5 hPa 0,0 l/m 20,2 km/h (4 Bft) W 0,00 h 0 W/m 15,7 C 21,1 C 20,2 km/h (4 Bft)
16.07.2009 14:00 24,6 C 60 % 1019,5 hPa 0,0 l/m 17,1 km/h (3 Bft) NW 0,00 h 0 W/m 16,3 C 22,5 C 17,1 km/h (3 Bft)
16.07.2009 15:00 25,1 C 63 % 1018,6 hPa 0,0 l/m 16,4 km/h (3 Bft) N-NO 0,00 h 0 W/m 17,5 C 23,3 C 16,4 km/h (3 Bft)
16.07.2009 16:00 24,2 C 65 % 1018,8 hPa 0,0 l/m 16,5 km/h (3 Bft) N-NO 0,00 h 0 W/m 17,1 C 22,1 C 16,5 km/h (3 Bft)
16.07.2009 17:00 23,2 C 68 % 1018,5 hPa 0,0 l/m 14,7 km/h (3 Bft) N 0,00 h 0 W/m 16,9 C 21,2 C 14,7 km/h (3 Bft)
16.07.2009 18:00 22,5 C 70 % 1018,5 hPa 0,0 l/m 10,3 km/h (2 Bft) N-NO 0,00 h 0 W/m 16,7 C 21,4 C 10,3 km/h (2 Bft)
16.07.2009 19:00 21,6 C 72 % 1018,3 hPa 0,0 l/m 7,6 km/h (2 Bft) NO 0,00 h 0 W/m 16,3 C 21,0 C 7,6 km/h (2 Bft)
16.07.2009 20:00 20,6 C 75 % 1017,8 hPa 0,0 l/m 5,9 km/h (2 Bft) NO 0,00 h 0 W/m 16,0 C 20,5 C 5,9 km/h (2 Bft)
16.07.2009 21:00 19,5 C 76 % 1017,5 hPa 0,0 l/m 1,5 km/h (1 Bft) N-NO 0,00 h 0 W/m 15,3 C 19,5 C 1,5 km/h (1 Bft)
16.07.2009 22:00 18,9 C 78 % 1017,0 hPa 0,0 l/m 0,0 km/h (0 Bft) N 0,00 h 0 W/m 14,9 C 18,9 C 0,0 km/h (0 Bft)
16.07.2009 23:00 18,3 C 79 % 1016,5 hPa 0,0 l/m 0,3 km/h (0 Bft) N 0,00 h 0 W/m 14,7 C 18,3 C 0,3 km/h (0 Bft)
17.07.2009 00:00 17,8 C 82 % 1015,6 hPa 0,0 l/m 5,3 km/h (1 Bft) O 0,00 h 0 W/m 14,6 C 17,5 C 5,3 km/h (1 Bft)
17.07.2009 01:00 17,7 C 83 % 1014,7 hPa 0,0 l/m 8,9 km/h (2 Bft) SO 0,00 h 0 W/m 14,8 C 16,5 C 8,9 km/h (2 Bft)
17.07.2009 02:00 17,6 C 85 % 1014,3 hPa 0,0 l/m 11,7 km/h (2 Bft) SO 0,00 h 0 W/m 15,1 C 15,4 C 11,7 km/h (2 Bft)
17.07.2009 03:00 17,6 C 85 % 1013,5 hPa 0,0 l/m 13,0 km/h (3 Bft) S-SO 0,00 h 0 W/m 15,1 C 15,0 C 13,0 km/h (3 Bft)
17.07.2009 04:00 17,4 C 85 % 1012,9 hPa 0,0 l/m 11,1 km/h (2 Bft) SO 0,00 h 0 W/m 14,9 C 15,5 C 11,1 km/h (2 Bft)
17.07.2009 05:00 17,3 C 85 % 1011,9 hPa 0,0 l/m 11,4 km/h (2 Bft) SO 0,00 h 0 W/m 14,7 C 15,2 C 11,4 km/h (2 Bft)
17.07.2009 06:00 17,6 C 83 % 1011,3 hPa 0,0 l/m 10,8 km/h (2 Bft) SO 0,00 h 0 W/m 14,7 C 15,7 C 10,8 km/h (2 Bft)
17.07.2009 07:00 18,4 C 80 % 1010,4 hPa 0,0 l/m 12,5 km/h (2 Bft) SO 0,00 h 0 W/m 14,9 C 16,1 C 12,5 km/h (2 Bft)
17.07.2009 08:00 20,0 C 76 % 1009,4 hPa 0,0 l/m 10,5 km/h (2 Bft) SO 0,00 h 0 W/m 15,6 C 18,5 C 10,5 km/h (2 Bft)
17.07.2009 09:00 21,5 C 71 % 1008,2 hPa 0,0 l/m 10,7 km/h (2 Bft) O-SO 0,00 h 0 W/m 16,0 C 20,1 C 10,7 km/h (2 Bft)
17.07.2009 10:00 22,4 C 68 % 1007,5 hPa 0,0 l/m 13,0 km/h (3 Bft) SO 0,00 h 0 W/m 16,1 C 20,7 C 13,0 km/h (3 Bft)
17.07.2009 11:00 22,2 C 68 % 1006,7 hPa 0,0 l/m 15,4 km/h (3 Bft) SO 0,00 h 0 W/m 16,0 C 19,9 C 15,4 km/h (3 Bft)
17.07.2009 12:00 20,5 C 76 % 1007,6 hPa 5,4 l/m 14,8 km/h (3 Bft) SW 0,00 h 0 W/m 16,1 C 18,2 C 14,8 km/h (3 Bft)
17.07.2009 13:00 19,3 C 86 % 1007,2 hPa 0,6 l/m 10,9 km/h (2 Bft) S 0,00 h 0 W/m 16,8 C 17,6 C 10,9 km/h (2 Bft)
17.07.2009 14:00 19,5 C 87 % 1006,5 hPa 0,0 l/m 11,2 km/h (2 Bft) S-SO 0,00 h 0 W/m 17,3 C 17,8 C 11,2 km/h (2 Bft)
17.07.2009 15:00 19,3 C 89 % 1006,5 hPa 0,3 l/m 12,4 km/h (2 Bft) S 0,00 h 0 W/m 17,4 C 17,1 C 12,4 km/h (2 Bft)
17.07.2009 16:00 21,9 C 83 % 1005,6 hPa 0,0 l/m 8,3 km/h (2 Bft) S 0,00 h 0 W/m 18,9 C 21,2 C 8,3 km/h (2 Bft)
17.07.2009 17:00 22,8 C 75 % 1005,4 hPa 0,0 l/m 12,2 km/h (2 Bft) S-SW 0,00 h 0 W/m 18,1 C 21,2 C 12,2 km/h (2 Bft)
17.07.2009 18:00 22,5 C 74 % 1005,0 hPa 0,0 l/m 12,5 km/h (2 Bft) S-SW 0,00 h 0 W/m 17,6 C 20,9 C 12,5 km/h (2 Bft)
17.07.2009 19:00 21,7 C 76 % 1005,3 hPa 0,0 l/m 3,3 km/h (1 Bft) S 0,00 h 0 W/m 17,4 C 21,6 C 3,3 km/h (1 Bft)
17.07.2009 20:00 19,6 C 77 % 1005,5 hPa 3,3 l/m 11,8 km/h (2 Bft) NW 0,00 h 0 W/m 15,4 C 17,9 C 11,8 km/h (2 Bft)
17.07.2009 21:00 19,3 C 82 % 1005,5 hPa 0,3 l/m 0,4 km/h (0 Bft) N-NW 0,00 h 0 W/m 16,1 C 19,3 C 0,4 km/h (0 Bft)
17.07.2009 22:00 18,9 C 83 % 1005,5 hPa 0,0 l/m 0,9 km/h (0 Bft) O-SO 0,00 h 0 W/m 16,0 C 18,9 C 0,9 km/h (0 Bft)
17.07.2009 23:00 18,3 C 85 % 1005,0 hPa 0,0 l/m 0,0 km/h (0 Bft) N 0,00 h 0 W/m 15,7 C 18,3 C 0,0 km/h (0 Bft)
18.07.2009 00:00 17,8 C 86 % 1004,5 hPa 0,0 l/m 0,0 km/h (0 Bft) N 0,00 h 0 W/m 15,4 C 17,8 C 0,0 km/h (0 Bft)
18.07.2009 01:00 17,8 C 87 % 1004,8 hPa 0,0 l/m 0,0 km/h (0 Bft) N 0,00 h 0 W/m 15,6 C 17,8 C 0,0 km/h (0 Bft)
18.07.2009 02:00 17,9 C 88 % 1004,5 hPa 0,0 l/m 0,0 km/h (0 Bft) N 0,00 h 0 W/m 15,9 C 17,9 C 0,0 km/h (0 Bft)
18.07.2009 03:00 17,8 C 88 % 1004,1 hPa 0,0 l/m 0,0 km/h (0 Bft) N 0,00 h 0 W/m 15,7 C 17,8 C 0,0 km/h (0 Bft)
18.07.2009 04:00 16,6 C 89 % 1003,5 hPa 0,0 l/m 0,0 km/h (0 Bft) N 0,00 h 0 W/m 14,8 C 16,6 C 0,0 km/h (0 Bft)
18.07.2009 05:00 16,3 C 91 % 1003,5 hPa 0,3 l/m 0,0 km/h (0 Bft) N 0,00 h 0 W/m 14,8 C 16,3 C 0,0 km/h (0 Bft)
18.07.2009 06:00 16,4 C 92 % 1003,5 hPa 1,2 l/m 1,0 km/h (0 Bft) S-SO 0,00 h 0 W/m 15,1 C 16,4 C 1,0 km/h (0 Bft)
18.07.2009 07:00 17,1 C 93 % 1003,5 hPa 0,9 l/m 6,1 km/h (2 Bft) S-SW 0,00 h 0 W/m 15,9 C 16,9 C 6,1 km/h (2 Bft)
18.07.2009 08:00 16,9 C 89 % 1003,3 hPa 0,3 l/m 11,0 km/h (2 Bft) W-SW 0,00 h 0 W/m 15,0 C 14,8 C 11,0 km/h (2 Bft)
18.07.2009 09:00 16,5 C 86 % 1003,0 hPa 0,0 l/m 16,4 km/h (3 Bft) W 0,00 h 0 W/m 14,2 C 12,7 C 16,4 km/h (3 Bft)
18.07.2009 10:00 17,1 C 83 % 1003,5 hPa 0,0 l/m 18,4 km/h (3 Bft) W-SW 0,00 h 0 W/m 14,2 C 12,9 C 18,4 km/h (3 Bft)
18.07.2009 11:00 18,2 C 78 % 1003,5 hPa 0,0 l/m 21,2 km/h (4 Bft) W 0,00 h 0 W/m 14,3 C 13,7 C 21,2 km/h (4 Bft)
18.07.2009 12:00 19,1 C 73 % 1003,5 hPa 0,0 l/m 27,3 km/h (5 Bft) W-SW 0,00 h 0 W/m 14,1 C 13,9 C 27,3 km/h (5 Bft)
18.07.2009 13:00 19,4 C 69 % 1003,4 hPa 0,0 l/m 26,0 km/h (4 Bft) W-SW 0,00 h 0 W/m 13,5 C 14,4 C 26,0 km/h (4 Bft)
18.07.2009 14:00 19,6 C 68 % 1003,5 hPa 0,0 l/m 30,3 km/h (5 Bft) W-SW 0,00 h 0 W/m 13,5 C 14,3 C 30,3 km/h (5 Bft)
18.07.2009 15:00 20,3 C 67 % 1003,5 hPa 0,0 l/m 32,5 km/h (5 Bft) W 0,00 h 0 W/m 14,0 C 14,9 C 32,5 km/h (5 Bft)
18.07.2009 16:00 19,7 C 70 % 1003,5 hPa 0,0 l/m 32,8 km/h (5 Bft) W 0,00 h 0 W/m 14,1 C 14,0 C 32,8 km/h (5 Bft)
18.07.2009 17:00 19,0 C 73 % 1003,5 hPa 0,3 l/m 30,9 km/h (5 Bft) W 0,00 h 0 W/m 14,0 C 13,3 C 30,9 km/h (5 Bft)
18.07.2009 18:00 18,8 C 74 % 1004,3 hPa 0,0 l/m 27,9 km/h (5 Bft) W 0,00 h 0 W/m 14,0 C 13,4 C 27,9 km/h (5 Bft)
18.07.2009 19:00 18,3 C 76 % 1004,5 hPa 1,2 l/m 26,3 km/h (4 Bft) W 0,00 h 0 W/m 14,0 C 12,9 C 26,3 km/h (4 Bft)
18.07.2009 20:00 16,6 C 86 % 1005,4 hPa 0,0 l/m 27,4 km/h (5 Bft) W-NW 0,00 h 0 W/m 14,2 C 10,4 C 27,4 km/h (5 Bft)
18.07.2009 21:00 16,0 C 86 % 1005,8 hPa 0,0 l/m 30,9 km/h (5 Bft) W 0,00 h 0 W/m 13,7 C 9,1 C 30,9 km/h (5 Bft)
18.07.2009 22:00 15,8 C 86 % 1006,5 hPa 0,3 l/m 27,1 km/h (5 Bft) W 0,00 h 0 W/m 13,5 C 9,4 C 27,1 km/h (5 Bft)
18.07.2009 23:00 15,5 C 87 % 1006,5 hPa 0,0 l/m 28,6 km/h (5 Bft) W 0,00 h 0 W/m 13,3 C 8,6 C 28,6 km/h (5 Bft)
19.07.2009 00:00 15,5 C 86 % 1006,6 hPa 0,0 l/m 24,5 km/h (4 Bft) W 0,00 h 0 W/m 13,1 C 9,5 C 24,5 km/h (4 Bft)
19.07.2009 01:00 15,7 C 84 % 1007,5 hPa 0,0 l/m 26,4 km/h (4 Bft) W 0,00 h 0 W/m 12,9 C 9,3 C 26,4 km/h (4 Bft)
19.07.2009 02:00 15,5 C 85 % 1007,3 hPa 0,0 l/m 26,5 km/h (4 Bft) W 0,00 h 0 W/m 13,0 C 9,0 C 26,5 km/h (4 Bft)
19.07.2009 03:00 15,1 C 87 % 1007,2 hPa 0,0 l/m 21,2 km/h (4 Bft) W 0,00 h 0 W/m 13,0 C 9,6 C 21,2 km/h (4 Bft)
19.07.2009 04:00 14,7 C 90 % 1007,5 hPa 0,0 l/m 18,5 km/h (3 Bft) W-SW 0,00 h 0 W/m 13,0 C 9,8 C 18,5 km/h (3 Bft)
19.07.2009 05:00 14,6 C 91 % 1007,5 hPa 0,0 l/m 19,5 km/h (3 Bft) W 0,00 h 0 W/m 13,1 C 9,4 C 19,5 km/h (3 Bft)
19.07.2009 06:00 15,0 C 90 % 1007,4 hPa 0,0 l/m 20,3 km/h (4 Bft) W 0,00 h 0 W/m 13,4 C 9,7 C 20,3 km/h (4 Bft)
19.07.2009 07:00 15,6 C 87 % 1007,5 hPa 0,0 l/m 21,8 km/h (4 Bft) W 0,00 h 0 W/m 13,4 C 10,1 C 21,8 km/h (4 Bft)
19.07.2009 08:00 16,3 C 85 % 1007,5 hPa 0,0 l/m 18,6 km/h (3 Bft) W-SW 0,00 h 0 W/m 13,7 C 11,8 C 18,6 km/h (3 Bft)
19.07.2009 09:00 16,8 C 82 % 1008,3 hPa 0,0 l/m 21,4 km/h (4 Bft) W 0,00 h 0 W/m 13,8 C 11,8 C 21,4 km/h (4 Bft)
19.07.2009 10:00 18,2 C 77 % 1008,5 hPa 0,0 l/m 18,8 km/h (3 Bft) W 0,00 h 0 W/m 14,1 C 14,1 C 18,8 km/h (3 Bft)
19.07.2009 11:00 18,5 C 75 % 1008,5 hPa 0,0 l/m 18,0 km/h (3 Bft) W 0,00 h 0 W/m 13,9 C 14,7 C 18,0 km/h (3 Bft)
19.07.2009 12:00 19,8 C 70 % 1008,5 hPa 0,0 l/m 22,0 km/h (4 Bft) W 0,00 h 0 W/m 14,1 C 15,6 C 22,0 km/h (4 Bft)
19.07.2009 13:00 20,5 C 67 % 1008,5 hPa 0,0 l/m 24,5 km/h (4 Bft) W 0,00 h 0 W/m 14,1 C 16,2 C 24,5 km/h (4 Bft)
19.07.2009 14:00 19,7 C 66 % 1008,5 hPa 0,0 l/m 26,4 km/h (4 Bft) W 0,00 h 0 W/m 13,3 C 14,8 C 26,4 km/h (4 Bft)
19.07.2009 15:00 17,1 C 76 % 1009,5 hPa 0,3 l/m 15,8 km/h (3 Bft) NW 0,00 h 0 W/m 12,9 C 13,7 C 15,8 km/h (3 Bft)
19.07.2009 16:00 17,3 C 77 % 1009,5 hPa 0,0 l/m 13,3 km/h (3 Bft) W 0,00 h 0 W/m 13,2 C 14,6 C 13,3 km/h (3 Bft)
19.07.2009 17:00 18,3 C 72 % 1009,5 hPa 0,0 l/m 16,4 km/h (3 Bft) W 0,00 h 0 W/m 13,2 C 14,9 C 16,4 km/h (3 Bft)
19.07.2009 18:00 19,2 C 69 % 1009,5 hPa 0,0 l/m 15,8 km/h (3 Bft) W-NW 0,00 h 0 W/m 13,5 C 16,1 C 15,8 km/h (3 Bft)
19.07.2009 19:00 18,4 C 68 % 1009,5 hPa 0,0 l/m 13,5 km/h (3 Bft) W-NW 0,00 h 0 W/m 12,4 C 15,8 C 13,5 km/h (3 Bft)
19.07.2009 20:00 16,2 C 78 % 1010,2 hPa 2,4 l/m 15,7 km/h (3 Bft) W 0,00 h 0 W/m 12,3 C 13,1 C 15,7 km/h (3 Bft)
19.07.2009 21:00 14,3 C 87 % 1010,5 hPa 1,5 l/m 8,3 km/h (2 Bft) W-SW 0,00 h 0 W/m 12,3 C 13,0 C 8,3 km/h (2 Bft)
19.07.2009 22:00 14,5 C 89 % 1010,5 hPa 0,3 l/m 6,4 km/h (2 Bft) SW 0,00 h 0 W/m 12,7 C 14,0 C 6,4 km/h (2 Bft)
19.07.2009 23:00 14,2 C 91 % 1010,5 hPa 0,9 l/m 9,7 km/h (2 Bft) W-SW 0,00 h 0 W/m 12,8 C 12,5 C 9,7 km/h (2 Bft)
Min-Datum _ 19.07.09 14.07.09 18.07.09 - 13.07.09 - - - 19.07.09 18.07.09 13.07.09
_ Min-Zeit 22:55 12:10 08:55 - 19:00 - - - 19:55 22:55 19:00
Minimum _ 14,0 C 46 % 1002,5 hPa - 0,0 km/h (0 Bft) - - - 11,5 C 7,7 C 0,0 km/h (0 Bft)
Max-Datum _ 15.07.09 13.07.09 16.07.09 17.07.09 18.07.09 - 13.07.09 13.07.09 17.07.09 14.07.09 18.07.09
_ Max-Zeit 14:20 00:50 10:30 12:20 16:25 - 00:00 00:00 16:24 14:15 16:25
Maximum _ 27,7 C 94 % 1019,5 hPa 5,4 l/m 42,9 km/h
W (6 Bft)
- 0,00 h 0 W/m 19,4 C 26,8 C 42,9 km/h
W (6 Bft)
Durchschnitt _ 19,0 C 78 % 1010,0 hPa #20,4 l/m 11,7 km/h (2 Bft) W #0 min. 0 W/m 14,8 C 17,0 C 11,7 km/h (2 Bft)
copyright by Holger Just